sensor_id;sensor_type;location;lat;lon;timestamp;P1;durP1;ratioP1;P2;durP2;ratioP2
8476;SDS011;4275;42.854;23.222;2023-10-13T00:02:13;9.80;;;9.50;;
8476;SDS011;4275;42.854;23.222;2023-10-13T00:04:43;9.90;;;9.60;;
8476;SDS011;4275;42.854;23.222;2023-10-13T00:07:13;10.00;;;9.70;;
8476;SDS011;4275;42.854;23.222;2023-10-13T00:09:40;9.55;;;9.25;;
8476;SDS011;4275;42.854;23.222;2023-10-13T00:12:08;9.50;;;9.20;;
8476;SDS011;4275;42.854;23.222;2023-10-13T00:14:46;9.70;;;9.40;;
8476;SDS011;4275;42.854;23.222;2023-10-13T00:17:16;9.90;;;9.60;;
8476;SDS011;4275;42.854;23.222;2023-10-13T00:19:45;9.90;;;9.60;;
8476;SDS011;4275;42.854;23.222;2023-10-13T00:22:17;10.60;;;10.30;;
8476;SDS011;4275;42.854;23.222;2023-10-13T00:24:45;10.70;;;10.40;;
8476;SDS011;4275;42.854;23.222;2023-10-13T00:27:13;10.70;;;10.40;;
8476;SDS011;4275;42.854;23.222;2023-10-13T00:29:57;11.15;;;10.75;;
8476;SDS011;4275;42.854;23.222;2023-10-13T00:32:47;10.23;;;9.93;;
8476;SDS011;4275;42.854;23.222;2023-10-13T00:35:20;10.80;;;10.50;;
8476;SDS011;4275;42.854;23.222;2023-10-13T00:37:54;10.38;;;10.07;;
8476;SDS011;4275;42.854;23.222;2023-10-13T00:40:22;10.30;;;10.00;;
8476;SDS011;4275;42.854;23.222;2023-10-13T00:43:10;10.20;;;9.90;;
8476;SDS011;4275;42.854;23.222;2023-10-13T00:45:56;10.07;;;9.77;;
8476;SDS011;4275;42.854;23.222;2023-10-13T00:48:33;9.95;;;9.65;;
8476;SDS011;4275;42.854;23.222;2023-10-13T00:51:07;10.00;;;9.70;;
8476;SDS011;4275;42.854;23.222;2023-10-13T00:53:46;10.10;;;9.80;;
8476;SDS011;4275;42.854;23.222;2023-10-13T00:56:14;9.90;;;9.60;;
8476;SDS011;4275;42.854;23.222;2023-10-13T00:58:52;9.55;;;9.25;;
8476;SDS011;4275;42.854;23.222;2023-10-13T01:01:20;9.80;;;9.50;;
8476;SDS011;4275;42.854;23.222;2023-10-13T01:03:48;9.75;;;9.45;;
8476;SDS011;4275;42.854;23.222;2023-10-13T01:06:16;9.80;;;9.50;;
8476;SDS011;4275;42.854;23.222;2023-10-13T01:08:45;9.77;;;9.48;;
8476;SDS011;4275;42.854;23.222;2023-10-13T01:11:17;9.52;;;9.23;;
8476;SDS011;4275;42.854;23.222;2023-10-13T01:13:49;9.60;;;9.30;;
8476;SDS011;4275;42.854;23.222;2023-10-13T01:16:17;9.50;;;9.20;;
8476;SDS011;4275;42.854;23.222;2023-10-13T01:18:47;9.60;;;9.30;;
8476;SDS011;4275;42.854;23.222;2023-10-13T01:21:16;9.60;;;9.30;;
8476;SDS011;4275;42.854;23.222;2023-10-13T01:23:47;9.10;;;8.90;;
8476;SDS011;4275;42.854;23.222;2023-10-13T01:26:18;9.43;;;9.13;;
8476;SDS011;4275;42.854;23.222;2023-10-13T01:28:58;9.30;;;9.00;;
8476;SDS011;4275;42.854;23.222;2023-10-13T01:31:24;9.53;;;9.23;;
8476;SDS011;4275;42.854;23.222;2023-10-13T01:33:52;9.50;;;9.20;;
8476;SDS011;4275;42.854;23.222;2023-10-13T01:36:22;9.43;;;9.13;;
8476;SDS011;4275;42.854;23.222;2023-10-13T01:38:51;9.63;;;9.32;;
8476;SDS011;4275;42.854;23.222;2023-10-13T01:41:18;9.45;;;9.15;;
8476;SDS011;4275;42.854;23.222;2023-10-13T01:43:45;9.70;;;9.40;;
8476;SDS011;4275;42.854;23.222;2023-10-13T01:46:13;9.70;;;9.40;;
8476;SDS011;4275;42.854;23.222;2023-10-13T01:48:50;9.70;;;9.40;;
8476;SDS011;4275;42.854;23.222;2023-10-13T01:51:19;9.70;;;9.40;;
8476;SDS011;4275;42.854;23.222;2023-10-13T01:53:48;9.30;;;9.00;;
8476;SDS011;4275;42.854;23.222;2023-10-13T01:56:23;8.60;;;8.40;;
8476;SDS011;4275;42.854;23.222;2023-10-13T01:58:50;8.88;;;8.68;;
8476;SDS011;4275;42.854;23.222;2023-10-13T02:01:17;8.80;;;8.60;;
8476;SDS011;4275;42.854;23.222;2023-10-13T02:03:53;8.63;;;8.43;;
8476;SDS011;4275;42.854;23.222;2023-10-13T02:06:27;8.63;;;8.43;;
8476;SDS011;4275;42.854;23.222;2023-10-13T02:08:58;7.50;;;7.30;;
8476;SDS011;4275;42.854;23.222;2023-10-13T02:11:37;8.13;;;7.93;;
8476;SDS011;4275;42.854;23.222;2023-10-13T02:14:13;8.00;;;7.80;;
8476;SDS011;4275;42.854;23.222;2023-10-13T02:16:41;7.93;;;7.73;;
8476;SDS011;4275;42.854;23.222;2023-10-13T02:19:12;7.50;;;7.30;;
8476;SDS011;4275;42.854;23.222;2023-10-13T02:21:41;7.80;;;7.60;;
8476;SDS011;4275;42.854;23.222;2023-10-13T02:24:10;7.83;;;7.63;;
8476;SDS011;4275;42.854;23.222;2023-10-13T02:26:40;8.30;;;8.10;;
8476;SDS011;4275;42.854;23.222;2023-10-13T02:29:07;7.70;;;7.50;;
8476;SDS011;4275;42.854;23.222;2023-10-13T02:31:34;8.10;;;7.90;;
8476;SDS011;4275;42.854;23.222;2023-10-13T02:34:03;8.03;;;7.83;;
8476;SDS011;4275;42.854;23.222;2023-10-13T02:36:33;7.60;;;7.40;;
8476;SDS011;4275;42.854;23.222;2023-10-13T02:39:12;7.80;;;7.60;;
8476;SDS011;4275;42.854;23.222;2023-10-13T02:41:40;7.70;;;7.50;;
8476;SDS011;4275;42.854;23.222;2023-10-13T02:44:13;8.00;;;7.80;;
8476;SDS011;4275;42.854;23.222;2023-10-13T02:46:51;8.00;;;7.80;;
8476;SDS011;4275;42.854;23.222;2023-10-13T02:49:21;7.80;;;7.60;;
8476;SDS011;4275;42.854;23.222;2023-10-13T02:51:47;7.53;;;7.33;;
8476;SDS011;4275;42.854;23.222;2023-10-13T02:54:14;7.50;;;7.30;;
8476;SDS011;4275;42.854;23.222;2023-10-13T02:56:44;7.33;;;7.13;;
8476;SDS011;4275;42.854;23.222;2023-10-13T02:59:15;7.28;;;7.07;;
8476;SDS011;4275;42.854;23.222;2023-10-13T03:01:45;7.90;;;7.70;;
8476;SDS011;4275;42.854;23.222;2023-10-13T03:04:12;7.17;;;6.97;;
8476;SDS011;4275;42.854;23.222;2023-10-13T03:06:38;6.93;;;6.73;;
8476;SDS011;4275;42.854;23.222;2023-10-13T03:09:07;7.20;;;7.00;;
8476;SDS011;4275;42.854;23.222;2023-10-13T03:11:40;7.30;;;7.10;;
8476;SDS011;4275;42.854;23.222;2023-10-13T03:14:14;7.37;;;7.17;;
8476;SDS011;4275;42.854;23.222;2023-10-13T03:16:50;7.30;;;7.10;;
8476;SDS011;4275;42.854;23.222;2023-10-13T03:19:18;7.23;;;7.03;;
8476;SDS011;4275;42.854;23.222;2023-10-13T03:21:44;7.10;;;6.90;;
8476;SDS011;4275;42.854;23.222;2023-10-13T03:24:20;7.03;;;6.83;;
8476;SDS011;4275;42.854;23.222;2023-10-13T03:26:58;6.73;;;6.53;;
8476;SDS011;4275;42.854;23.222;2023-10-13T03:29:35;6.90;;;6.70;;
8476;SDS011;4275;42.854;23.222;2023-10-13T03:32:01;6.90;;;6.70;;
8476;SDS011;4275;42.854;23.222;2023-10-13T03:34:36;7.00;;;6.80;;
8476;SDS011;4275;42.854;23.222;2023-10-13T03:37:06;6.90;;;6.70;;
8476;SDS011;4275;42.854;23.222;2023-10-13T03:39:43;6.97;;;6.78;;
8476;SDS011;4275;42.854;23.222;2023-10-13T03:42:10;6.90;;;6.70;;
8476;SDS011;4275;42.854;23.222;2023-10-13T03:44:45;6.80;;;6.60;;
8476;SDS011;4275;42.854;23.222;2023-10-13T03:47:14;6.65;;;6.45;;
8476;SDS011;4275;42.854;23.222;2023-10-13T03:49:53;6.30;;;6.20;;
8476;SDS011;4275;42.854;23.222;2023-10-13T03:52:40;6.80;;;6.60;;
8476;SDS011;4275;42.854;23.222;2023-10-13T03:55:07;6.30;;;6.20;;
8476;SDS011;4275;42.854;23.222;2023-10-13T03:57:42;6.30;;;6.20;;
8476;SDS011;4275;42.854;23.222;2023-10-13T04:00:13;6.80;;;6.60;;
8476;SDS011;4275;42.854;23.222;2023-10-13T04:02:47;5.93;;;5.83;;
8476;SDS011;4275;42.854;23.222;2023-10-13T04:05:19;5.53;;;5.43;;
8476;SDS011;4275;42.854;23.222;2023-10-13T04:08:01;5.70;;;5.60;;
8476;SDS011;4275;42.854;23.222;2023-10-13T04:10:46;5.70;;;5.60;;
8476;SDS011;4275;42.854;23.222;2023-10-13T04:13:31;6.00;;;5.90;;
8476;SDS011;4275;42.854;23.222;2023-10-13T04:16:31;6.23;;;6.13;;
8476;SDS011;4275;42.854;23.222;2023-10-13T04:19:03;6.23;;;6.13;;
8476;SDS011;4275;42.854;23.222;2023-10-13T04:21:35;6.20;;;6.10;;
8476;SDS011;4275;42.854;23.222;2023-10-13T04:24:21;6.30;;;6.20;;
8476;SDS011;4275;42.854;23.222;2023-10-13T04:27:02;6.10;;;6.00;;
8476;SDS011;4275;42.854;23.222;2023-10-13T04:29:55;5.70;;;5.60;;
8476;SDS011;4275;42.854;23.222;2023-10-13T04:32:37;5.60;;;5.50;;
8476;SDS011;4275;42.854;23.222;2023-10-13T04:35:13;5.80;;;5.70;;
8476;SDS011;4275;42.854;23.222;2023-10-13T04:37:43;5.37;;;5.27;;
8476;SDS011;4275;42.854;23.222;2023-10-13T04:40:20;5.70;;;5.60;;
8476;SDS011;4275;42.854;23.222;2023-10-13T04:42:50;5.70;;;5.60;;
8476;SDS011;4275;42.854;23.222;2023-10-13T04:45:19;6.20;;;6.10;;
8476;SDS011;4275;42.854;23.222;2023-10-13T04:48:05;5.80;;;5.70;;
8476;SDS011;4275;42.854;23.222;2023-10-13T04:50:58;5.70;;;5.60;;
8476;SDS011;4275;42.854;23.222;2023-10-13T04:53:40;5.87;;;5.77;;
8476;SDS011;4275;42.854;23.222;2023-10-13T04:56:21;5.93;;;5.83;;
8476;SDS011;4275;42.854;23.222;2023-10-13T04:59:05;5.70;;;5.60;;
8476;SDS011;4275;42.854;23.222;2023-10-13T05:01:43;5.70;;;5.60;;
8476;SDS011;4275;42.854;23.222;2023-10-13T05:04:43;6.03;;;5.93;;
8476;SDS011;4275;42.854;23.222;2023-10-13T05:07:23;5.20;;;5.10;;
8476;SDS011;4275;42.854;23.222;2023-10-13T05:10:08;5.80;;;5.70;;
8476;SDS011;4275;42.854;23.222;2023-10-13T05:12:52;5.47;;;5.38;;
8476;SDS011;4275;42.854;23.222;2023-10-13T05:15:42;5.88;;;5.78;;
8476;SDS011;4275;42.854;23.222;2023-10-13T05:18:27;6.20;;;6.10;;
8476;SDS011;4275;42.854;23.222;2023-10-13T05:21:13;7.10;;;6.90;;
8476;SDS011;4275;42.854;23.222;2023-10-13T05:23:57;7.60;;;7.40;;
8476;SDS011;4275;42.854;23.222;2023-10-13T05:26:41;7.87;;;7.67;;
8476;SDS011;4275;42.854;23.222;2023-10-13T05:29:26;8.00;;;7.80;;
8476;SDS011;4275;42.854;23.222;2023-10-13T05:32:10;8.85;;;8.65;;
8476;SDS011;4275;42.854;23.222;2023-10-13T05:34:55;9.05;;;8.85;;
8476;SDS011;4275;42.854;23.222;2023-10-13T05:37:40;9.48;;;9.18;;
8476;SDS011;4275;42.854;23.222;2023-10-13T05:40:24;9.80;;;9.50;;
8476;SDS011;4275;42.854;23.222;2023-10-13T05:43:09;10.48;;;10.18;;
8476;SDS011;4275;42.854;23.222;2023-10-13T05:45:55;10.63;;;10.32;;
8476;SDS011;4275;42.854;23.222;2023-10-13T05:48:44;10.23;;;9.93;;
8476;SDS011;4275;42.854;23.222;2023-10-13T05:51:52;10.38;;;10.07;;
8476;SDS011;4275;42.854;23.222;2023-10-13T05:54:24;10.80;;;10.50;;
8476;SDS011;4275;42.854;23.222;2023-10-13T05:57:09;11.18;;;10.88;;
8476;SDS011;4275;42.854;23.222;2023-10-13T05:59:53;10.80;;;10.50;;
8476;SDS011;4275;42.854;23.222;2023-10-13T06:02:38;11.40;;;11.10;;
8476;SDS011;4275;42.854;23.222;2023-10-13T06:05:22;11.57;;;11.20;;
8476;SDS011;4275;42.854;23.222;2023-10-13T06:08:06;10.98;;;10.68;;
8476;SDS011;4275;42.854;23.222;2023-10-13T06:11:00;11.50;;;11.20;;
8476;SDS011;4275;42.854;23.222;2023-10-13T06:13:45;11.40;;;11.10;;
8476;SDS011;4275;42.854;23.222;2023-10-13T06:16:41;11.80;;;11.40;;
8476;SDS011;4275;42.854;23.222;2023-10-13T06:19:26;12.13;;;11.73;;
8476;SDS011;4275;42.854;23.222;2023-10-13T06:22:10;11.73;;;11.32;;
8476;SDS011;4275;42.854;23.222;2023-10-13T06:24:54;12.75;;;12.35;;
8476;SDS011;4275;42.854;23.222;2023-10-13T06:27:40;12.60;;;12.20;;
8476;SDS011;4275;42.854;23.222;2023-10-13T06:30:24;12.60;;;12.20;;
8476;SDS011;4275;42.854;23.222;2023-10-13T06:32:51;12.70;;;12.30;;
8476;SDS011;4275;42.854;23.222;2023-10-13T06:35:18;12.30;;;11.90;;
8476;SDS011;4275;42.854;23.222;2023-10-13T06:37:48;12.77;;;12.38;;
8476;SDS011;4275;42.854;23.222;2023-10-13T06:40:15;12.95;;;12.55;;
8476;SDS011;4275;42.854;23.222;2023-10-13T06:43:01;12.73;;;12.32;;
8476;SDS011;4275;42.854;23.222;2023-10-13T06:45:42;12.98;;;12.57;;
8476;SDS011;4275;42.854;23.222;2023-10-13T06:48:15;12.98;;;12.57;;
8476;SDS011;4275;42.854;23.222;2023-10-13T06:50:48;13.10;;;12.70;;
8476;SDS011;4275;42.854;23.222;2023-10-13T06:53:17;13.10;;;12.70;;
8476;SDS011;4275;42.854;23.222;2023-10-13T06:55:44;13.60;;;13.10;;
8476;SDS011;4275;42.854;23.222;2023-10-13T06:58:16;13.82;;;13.32;;
8476;SDS011;4275;42.854;23.222;2023-10-13T07:00:49;13.90;;;13.40;;
8476;SDS011;4275;42.854;23.222;2023-10-13T07:03:21;14.57;;;14.07;;
8476;SDS011;4275;42.854;23.222;2023-10-13T07:05:50;14.93;;;14.43;;
8476;SDS011;4275;42.854;23.222;2023-10-13T07:08:19;15.27;;;14.68;;
8476;SDS011;4275;42.854;23.222;2023-10-13T07:10:49;15.70;;;15.10;;
8476;SDS011;4275;42.854;23.222;2023-10-13T07:13:28;15.88;;;15.27;;
8476;SDS011;4275;42.854;23.222;2023-10-13T07:15:55;16.67;;;15.98;;
8476;SDS011;4275;42.854;23.222;2023-10-13T07:18:27;16.63;;;15.93;;
8476;SDS011;4275;42.854;23.222;2023-10-13T07:21:01;16.80;;;16.10;;
8476;SDS011;4275;42.854;23.222;2023-10-13T07:23:35;17.73;;;16.92;;
8476;SDS011;4275;42.854;23.222;2023-10-13T07:26:02;17.60;;;16.80;;
8476;SDS011;4275;42.854;23.222;2023-10-13T07:28:32;17.75;;;16.95;;
8476;SDS011;4275;42.854;23.222;2023-10-13T07:31:01;17.45;;;16.65;;
8476;SDS011;4275;42.854;23.222;2023-10-13T07:33:41;17.58;;;16.77;;
8476;SDS011;4275;42.854;23.222;2023-10-13T07:36:08;17.92;;;17.13;;
8476;SDS011;4275;42.854;23.222;2023-10-13T07:38:43;17.60;;;16.80;;
8476;SDS011;4275;42.854;23.222;2023-10-13T07:41:13;17.60;;;16.80;;
8476;SDS011;4275;42.854;23.222;2023-10-13T07:43:43;17.70;;;16.90;;
8476;SDS011;4275;42.854;23.222;2023-10-13T07:46:11;17.42;;;16.63;;
8476;SDS011;4275;42.854;23.222;2023-10-13T07:48:38;17.70;;;16.90;;
8476;SDS011;4275;42.854;23.222;2023-10-13T07:51:07;17.80;;;17.00;;
8476;SDS011;4275;42.854;23.222;2023-10-13T07:53:37;18.10;;;17.30;;
8476;SDS011;4275;42.854;23.222;2023-10-13T07:56:05;18.30;;;17.42;;
8476;SDS011;4275;42.854;23.222;2023-10-13T07:58:34;18.27;;;17.38;;
8476;SDS011;4275;42.854;23.222;2023-10-13T08:01:13;18.17;;;17.38;;
8476;SDS011;4275;42.854;23.222;2023-10-13T08:03:43;17.65;;;16.85;;
8476;SDS011;4275;42.854;23.222;2023-10-13T08:06:11;17.60;;;16.80;;
8476;SDS011;4275;42.854;23.222;2023-10-13T08:08:47;17.58;;;16.77;;
8476;SDS011;4275;42.854;23.222;2023-10-13T08:11:18;17.48;;;16.67;;
8476;SDS011;4275;42.854;23.222;2023-10-13T08:13:53;18.33;;;17.52;;
8476;SDS011;4275;42.854;23.222;2023-10-13T08:16:22;17.45;;;16.65;;
8476;SDS011;4275;42.854;23.222;2023-10-13T08:18:55;17.85;;;17.05;;
8476;SDS011;4275;42.854;23.222;2023-10-13T08:21:26;17.83;;;17.02;;
8476;SDS011;4275;42.854;23.222;2023-10-13T08:23:57;17.88;;;17.08;;
8476;SDS011;4275;42.854;23.222;2023-10-13T08:26:26;18.00;;;17.20;;
8476;SDS011;4275;42.854;23.222;2023-10-13T08:29:17;17.90;;;17.10;;
8476;SDS011;4275;42.854;23.222;2023-10-13T08:32:03;18.05;;;17.25;;
8476;SDS011;4275;42.854;23.222;2023-10-13T08:34:46;18.17;;;17.38;;
8476;SDS011;4275;42.854;23.222;2023-10-13T08:37:32;18.30;;;17.42;;
8476;SDS011;4275;42.854;23.222;2023-10-13T08:40:03;17.85;;;17.05;;
8476;SDS011;4275;42.854;23.222;2023-10-13T08:42:44;17.73;;;16.92;;
8476;SDS011;4275;42.854;23.222;2023-10-13T08:45:36;17.75;;;16.95;;
8476;SDS011;4275;42.854;23.222;2023-10-13T08:48:19;18.10;;;17.30;;
8476;SDS011;4275;42.854;23.222;2023-10-13T08:50:51;18.40;;;17.50;;
8476;SDS011;4275;42.854;23.222;2023-10-13T08:53:21;18.33;;;17.42;;
8476;SDS011;4275;42.854;23.222;2023-10-13T08:55:56;18.30;;;17.40;;
8476;SDS011;4275;42.854;23.222;2023-10-13T08:58:30;17.98;;;17.17;;
8476;SDS011;4275;42.854;23.222;2023-10-13T09:01:12;18.13;;;17.33;;
8476;SDS011;4275;42.854;23.222;2023-10-13T09:04:00;17.73;;;16.92;;
8476;SDS011;4275;42.854;23.222;2023-10-13T09:06:42;17.90;;;17.10;;
8476;SDS011;4275;42.854;23.222;2023-10-13T09:09:12;31.95;;;30.05;;
8476;SDS011;4275;42.854;23.222;2023-10-13T09:11:52;17.85;;;17.05;;
8476;SDS011;4275;42.854;23.222;2023-10-13T09:14:33;18.00;;;17.10;;
8476;SDS011;4275;42.854;23.222;2023-10-13T09:17:03;17.83;;;17.02;;
8476;SDS011;4275;42.854;23.222;2023-10-13T09:19:49;17.67;;;16.85;;
8476;SDS011;4275;42.854;23.222;2023-10-13T09:22:24;17.95;;;17.15;;
8476;SDS011;4275;42.854;23.222;2023-10-13T09:25:00;17.75;;;16.95;;
8476;SDS011;4275;42.854;23.222;2023-10-13T09:27:28;17.48;;;16.67;;
8476;SDS011;4275;42.854;23.222;2023-10-13T09:29:57;17.27;;;16.48;;
8476;SDS011;4275;42.854;23.222;2023-10-13T09:32:35;17.35;;;16.55;;
8476;SDS011;4275;42.854;23.222;2023-10-13T09:35:13;17.73;;;16.85;;
8476;SDS011;4275;42.854;23.222;2023-10-13T09:37:44;17.30;;;16.50;;
8476;SDS011;4275;42.854;23.222;2023-10-13T09:40:16;17.20;;;16.40;;
8476;SDS011;4275;42.854;23.222;2023-10-13T09:42:54;17.10;;;16.30;;
8476;SDS011;4275;42.854;23.222;2023-10-13T09:45:27;17.45;;;16.65;;
8476;SDS011;4275;42.854;23.222;2023-10-13T09:48:02;17.05;;;16.25;;
8476;SDS011;4275;42.854;23.222;2023-10-13T09:50:35;17.25;;;16.45;;
8476;SDS011;4275;42.854;23.222;2023-10-13T09:53:07;17.60;;;16.80;;
8476;SDS011;4275;42.854;23.222;2023-10-13T09:55:36;17.30;;;16.50;;
8476;SDS011;4275;42.854;23.222;2023-10-13T09:58:10;17.27;;;16.48;;
8476;SDS011;4275;42.854;23.222;2023-10-13T10:00:42;18.88;;;17.98;;
8476;SDS011;4275;42.854;23.222;2023-10-13T10:03:14;17.25;;;16.45;;
8476;SDS011;4275;42.854;23.222;2023-10-13T10:05:59;17.33;;;16.52;;
8476;SDS011;4275;42.854;23.222;2023-10-13T10:08:31;17.40;;;16.60;;
8476;SDS011;4275;42.854;23.222;2023-10-13T10:11:19;17.25;;;16.45;;
8476;SDS011;4275;42.854;23.222;2023-10-13T10:14:13;17.23;;;16.42;;
8476;SDS011;4275;42.854;23.222;2023-10-13T10:16:48;17.17;;;16.38;;
8476;SDS011;4275;42.854;23.222;2023-10-13T10:19:26;17.60;;;16.80;;
8476;SDS011;4275;42.854;23.222;2023-10-13T10:22:02;16.85;;;16.15;;
8476;SDS011;4275;42.854;23.222;2023-10-13T10:24:38;17.05;;;16.35;;
8476;SDS011;4275;42.854;23.222;2023-10-13T10:27:06;17.42;;;16.63;;
8476;SDS011;4275;42.854;23.222;2023-10-13T10:29:33;17.10;;;16.40;;
8476;SDS011;4275;42.854;23.222;2023-10-13T10:32:00;17.05;;;16.35;;
8476;SDS011;4275;42.854;23.222;2023-10-13T10:34:38;17.23;;;16.42;;
8476;SDS011;4275;42.854;23.222;2023-10-13T10:37:08;17.05;;;16.35;;
8476;SDS011;4275;42.854;23.222;2023-10-13T10:39:36;16.88;;;16.17;;
8476;SDS011;4275;42.854;23.222;2023-10-13T10:42:11;16.58;;;15.88;;
8476;SDS011;4275;42.854;23.222;2023-10-13T10:44:49;16.60;;;15.90;;
8476;SDS011;4275;42.854;23.222;2023-10-13T10:47:20;16.63;;;15.93;;
8476;SDS011;4275;42.854;23.222;2023-10-13T10:49:56;16.63;;;15.93;;
8476;SDS011;4275;42.854;23.222;2023-10-13T10:52:24;16.50;;;15.80;;
8476;SDS011;4275;42.854;23.222;2023-10-13T10:55:02;16.90;;;16.20;;
8476;SDS011;4275;42.854;23.222;2023-10-13T10:57:32;17.00;;;16.30;;
8476;SDS011;4275;42.854;23.222;2023-10-13T11:00:02;16.83;;;16.13;;
8476;SDS011;4275;42.854;23.222;2023-10-13T11:02:37;16.80;;;16.10;;
8476;SDS011;4275;42.854;23.222;2023-10-13T11:05:05;16.98;;;16.27;;
8476;SDS011;4275;42.854;23.222;2023-10-13T11:07:36;17.02;;;16.33;;
8476;SDS011;4275;42.854;23.222;2023-10-13T11:10:09;17.00;;;16.30;;
8476;SDS011;4275;42.854;23.222;2023-10-13T11:12:55;17.05;;;16.35;;
8476;SDS011;4275;42.854;23.222;2023-10-13T11:15:41;17.02;;;16.33;;
8476;SDS011;4275;42.854;23.222;2023-10-13T11:18:10;17.17;;;16.48;;
8476;SDS011;4275;42.854;23.222;2023-10-13T11:20:46;17.63;;;16.83;;
8476;SDS011;4275;42.854;23.222;2023-10-13T11:23:20;16.75;;;16.05;;
8476;SDS011;4275;42.854;23.222;2023-10-13T11:25:56;18.33;;;17.52;;
8476;SDS011;4275;42.854;23.222;2023-10-13T11:28:24;17.13;;;16.42;;
8476;SDS011;4275;42.854;23.222;2023-10-13T11:30:53;17.05;;;16.35;;
8476;SDS011;4275;42.854;23.222;2023-10-13T11:33:23;17.17;;;16.48;;
8476;SDS011;4275;42.854;23.222;2023-10-13T11:35:53;17.05;;;16.35;;
8476;SDS011;4275;42.854;23.222;2023-10-13T11:38:28;17.52;;;16.73;;
8476;SDS011;4275;42.854;23.222;2023-10-13T11:41:08;17.05;;;16.35;;
8476;SDS011;4275;42.854;23.222;2023-10-13T11:43:37;17.48;;;16.70;;
8476;SDS011;4275;42.854;23.222;2023-10-13T11:46:34;17.08;;;16.38;;
8476;SDS011;4275;42.854;23.222;2023-10-13T11:49:18;16.98;;;16.27;;
8476;SDS011;4275;42.854;23.222;2023-10-13T11:51:56;17.25;;;16.45;;
8476;SDS011;4275;42.854;23.222;2023-10-13T11:54:36;17.60;;;16.80;;
8476;SDS011;4275;42.854;23.222;2023-10-13T11:57:07;17.23;;;16.52;;
8476;SDS011;4275;42.854;23.222;2023-10-13T11:59:34;17.13;;;16.42;;
8476;SDS011;4275;42.854;23.222;2023-10-13T12:02:10;17.50;;;16.80;;
8476;SDS011;4275;42.854;23.222;2023-10-13T12:04:55;17.17;;;16.48;;
8476;SDS011;4275;42.854;23.222;2023-10-13T12:07:24;17.55;;;16.75;;
8476;SDS011;4275;42.854;23.222;2023-10-13T12:10:09;17.48;;;16.67;;
8476;SDS011;4275;42.854;23.222;2023-10-13T12:12:42;17.50;;;16.80;;
8476;SDS011;4275;42.854;23.222;2023-10-13T12:15:11;17.42;;;16.73;;
8476;SDS011;4275;42.854;23.222;2023-10-13T12:17:50;17.80;;;17.05;;
8476;SDS011;4275;42.854;23.222;2023-10-13T12:20:17;17.25;;;16.55;;
8476;SDS011;4275;42.854;23.222;2023-10-13T12:22:57;17.48;;;16.77;;
8476;SDS011;4275;42.854;23.222;2023-10-13T12:25:37;17.05;;;16.35;;
8476;SDS011;4275;42.854;23.222;2023-10-13T12:28:21;17.50;;;16.80;;
8476;SDS011;4275;42.854;23.222;2023-10-13T12:30:51;17.52;;;16.83;;
8476;SDS011;4275;42.854;23.222;2023-10-13T12:33:19;17.25;;;16.55;;
8476;SDS011;4275;42.854;23.222;2023-10-13T12:36:02;17.08;;;16.38;;
8476;SDS011;4275;42.854;23.222;2023-10-13T12:38:35;16.98;;;16.27;;
8476;SDS011;4275;42.854;23.222;2023-10-13T12:41:17;17.20;;;16.50;;
8476;SDS011;4275;42.854;23.222;2023-10-13T12:44:03;17.35;;;16.65;;
8476;SDS011;4275;42.854;23.222;2023-10-13T12:46:49;17.85;;;17.05;;
8476;SDS011;4275;42.854;23.222;2023-10-13T12:49:33;17.30;;;16.60;;
8476;SDS011;4275;42.854;23.222;2023-10-13T12:52:17;17.45;;;16.75;;
8476;SDS011;4275;42.854;23.222;2023-10-13T12:54:45;17.98;;;17.17;;
8476;SDS011;4275;42.854;23.222;2023-10-13T12:57:25;17.25;;;16.55;;
8476;SDS011;4275;42.854;23.222;2023-10-13T12:59:52;17.55;;;16.85;;
8476;SDS011;4275;42.854;23.222;2023-10-13T13:02:20;17.20;;;16.50;;
8476;SDS011;4275;42.854;23.222;2023-10-13T13:04:50;17.02;;;16.33;;
8476;SDS011;4275;42.854;23.222;2023-10-13T13:07:21;16.88;;;16.17;;
8476;SDS011;4275;42.854;23.222;2023-10-13T13:09:54;17.05;;;16.35;;
8476;SDS011;4275;42.854;23.222;2023-10-13T13:12:25;16.58;;;15.88;;
8476;SDS011;4275;42.854;23.222;2023-10-13T13:14:53;16.73;;;16.02;;
8476;SDS011;4275;42.854;23.222;2023-10-13T13:17:21;16.85;;;16.15;;
8476;SDS011;4275;42.854;23.222;2023-10-13T13:19:48;16.98;;;16.27;;
8476;SDS011;4275;42.854;23.222;2023-10-13T13:22:15;16.80;;;16.10;;
8476;SDS011;4275;42.854;23.222;2023-10-13T13:24:43;17.17;;;16.48;;
8476;SDS011;4275;42.854;23.222;2023-10-13T13:27:12;16.92;;;16.23;;
8476;SDS011;4275;42.854;23.222;2023-10-13T13:29:41;16.80;;;16.10;;
8476;SDS011;4275;42.854;23.222;2023-10-13T13:32:08;16.60;;;15.90;;
8476;SDS011;4275;42.854;23.222;2023-10-13T13:34:44;16.35;;;15.65;;
8476;SDS011;4275;42.854;23.222;2023-10-13T13:37:19;16.65;;;15.95;;
8476;SDS011;4275;42.854;23.222;2023-10-13T13:39:46;16.75;;;16.05;;
8476;SDS011;4275;42.854;23.222;2023-10-13T13:42:14;16.85;;;16.15;;
8476;SDS011;4275;42.854;23.222;2023-10-13T13:44:44;16.98;;;16.27;;
8476;SDS011;4275;42.854;23.222;2023-10-13T13:47:12;17.23;;;16.42;;
8476;SDS011;4275;42.854;23.222;2023-10-13T13:49:39;17.13;;;16.33;;
8476;SDS011;4275;42.854;23.222;2023-10-13T13:52:11;17.23;;;16.42;;
8476;SDS011;4275;42.854;23.222;2023-10-13T13:54:43;17.73;;;16.92;;
8476;SDS011;4275;42.854;23.222;2023-10-13T13:57:10;17.27;;;16.48;;
8476;SDS011;4275;42.854;23.222;2023-10-13T13:59:38;17.23;;;16.42;;
8476;SDS011;4275;42.854;23.222;2023-10-13T14:02:10;17.33;;;16.52;;
8476;SDS011;4275;42.854;23.222;2023-10-13T14:04:45;17.15;;;16.42;;
8476;SDS011;4275;42.854;23.222;2023-10-13T14:07:15;16.98;;;16.27;;
8476;SDS011;4275;42.854;23.222;2023-10-13T14:09:45;17.40;;;16.60;;
8476;SDS011;4275;42.854;23.222;2023-10-13T14:12:16;17.20;;;16.50;;
8476;SDS011;4275;42.854;23.222;2023-10-13T14:14:55;17.40;;;16.60;;
8476;SDS011;4275;42.854;23.222;2023-10-13T14:17:24;17.38;;;16.58;;
8476;SDS011;4275;42.854;23.222;2023-10-13T14:19:55;17.20;;;16.40;;
8476;SDS011;4275;42.854;23.222;2023-10-13T14:22:22;17.27;;;16.48;;
8476;SDS011;4275;42.854;23.222;2023-10-13T14:24:50;17.50;;;16.70;;
8476;SDS011;4275;42.854;23.222;2023-10-13T14:27:20;17.52;;;16.73;;
8476;SDS011;4275;42.854;23.222;2023-10-13T14:29:48;17.10;;;16.30;;
8476;SDS011;4275;42.854;23.222;2023-10-13T14:32:18;17.15;;;16.35;;
8476;SDS011;4275;42.854;23.222;2023-10-13T14:34:51;17.45;;;16.65;;
8476;SDS011;4275;42.854;23.222;2023-10-13T14:37:21;17.35;;;16.55;;
8476;SDS011;4275;42.854;23.222;2023-10-13T14:39:54;17.58;;;16.77;;
8476;SDS011;4275;42.854;23.222;2023-10-13T14:42:22;17.35;;;16.55;;
8476;SDS011;4275;42.854;23.222;2023-10-13T14:44:49;17.58;;;16.77;;
8476;SDS011;4275;42.854;23.222;2023-10-13T14:47:21;17.50;;;16.70;;
8476;SDS011;4275;42.854;23.222;2023-10-13T14:49:52;17.70;;;16.90;;
8476;SDS011;4275;42.854;23.222;2023-10-13T14:52:21;18.52;;;17.63;;
8476;SDS011;4275;42.854;23.222;2023-10-13T14:54:48;17.70;;;16.90;;
8476;SDS011;4275;42.854;23.222;2023-10-13T14:57:20;17.80;;;17.00;;
8476;SDS011;4275;42.854;23.222;2023-10-13T14:59:50;17.83;;;17.02;;
8476;SDS011;4275;42.854;23.222;2023-10-13T15:02:18;17.77;;;16.98;;
8476;SDS011;4275;42.854;23.222;2023-10-13T15:04:45;17.65;;;16.85;;
8476;SDS011;4275;42.854;23.222;2023-10-13T15:07:16;17.35;;;16.55;;
8476;SDS011;4275;42.854;23.222;2023-10-13T15:09:44;17.58;;;16.77;;
8476;SDS011;4275;42.854;23.222;2023-10-13T15:12:11;17.38;;;16.58;;
8476;SDS011;4275;42.854;23.222;2023-10-13T15:14:39;17.80;;;17.00;;
8476;SDS011;4275;42.854;23.222;2023-10-13T15:17:08;17.33;;;16.52;;
8476;SDS011;4275;42.854;23.222;2023-10-13T15:19:35;17.83;;;17.02;;
8476;SDS011;4275;42.854;23.222;2023-10-13T15:22:04;17.50;;;16.70;;
8476;SDS011;4275;42.854;23.222;2023-10-13T15:24:33;17.08;;;16.27;;
8476;SDS011;4275;42.854;23.222;2023-10-13T15:27:10;17.38;;;16.58;;